Time;durP1;ratioP1;P1;durP2;ratioP2;P2;SDS_P1;SDS_P2;PMS_P1;PMS_P2;Temp;Humidity;BMP_temperature;BMP_pressure;BME280_temperature;BME280_humidity;BME280_pressure;Samples;Min_cycle;Max_cycle;Signal;HPM_P1;HPM_P2
2022/12/01 00:00:53;;;;;;;1.33;0.90;;;;;;;4.60;77.12;94805.69;4167632;28;20057;-52
2022/12/01 00:02:54;;;;;;;1.42;0.80;;;;;;;4.55;77.71;94801.81;4169751;28;20056;-56
2022/12/01 00:04:56;;;;;;;1.73;0.93;;;;;;;4.51;77.69;94803.81;4168995;28;20079;-53
2022/12/01 00:06:58;;;;;;;1.35;0.95;;;;;;;4.49;77.35;94803.94;4175960;28;20088;-53
2022/12/01 00:11:20;;;;;;;2.05;0.90;;;;;;;4.46;77.66;94799.00;4157953;28;20046;-52
2022/12/01 00:13:22;;;;;;;1.80;0.90;;;;;;;4.44;78.12;94802.66;4162807;28;20077;-52
2022/12/01 00:15:35;;;;;;;2.22;1.00;;;;;;;4.29;78.46;94799.50;4173167;28;20100;-53
2022/12/01 00:17:37;;;;;;;1.08;0.70;;;;;;;4.33;78.57;94808.69;4169250;28;20094;-48
2022/12/01 00:19:39;;;;;;;1.38;0.75;;;;;;;4.38;77.80;94801.38;4166648;28;20091;-50
2022/12/01 00:21:41;;;;;;;1.52;0.93;;;;;;;4.37;78.32;94804.91;4168934;28;20041;-52
2022/12/01 00:23:46;;;;;;;1.80;0.82;;;;;;;4.41;78.12;94805.47;4168834;28;20543;-54
2022/12/01 00:25:48;;;;;;;1.30;0.73;;;;;;;4.45;78.24;94799.97;4151634;28;20057;-49
2022/12/01 00:27:51;;;;;;;1.48;0.80;;;;;;;4.50;77.46;94805.59;4163584;28;20198;-55
2022/12/01 00:29:52;;;;;;;1.00;0.80;;;;;;;4.50;77.83;94815.16;4171825;28;20053;-50
2022/12/01 00:31:54;;;;;;;1.20;0.80;;;;;;;4.39;77.18;94810.81;4168719;28;20110;-52
2022/12/01 00:33:56;;;;;;;1.63;0.90;;;;;;;4.35;78.23;94817.19;4168697;28;20456;-52
2022/12/01 00:35:59;;;;;;;1.42;0.85;;;;;;;4.35;78.21;94811.16;4178240;28;20452;-54
2022/12/01 00:38:01;;;;;;;2.00;0.90;;;;;;;4.43;77.82;94808.78;4167067;28;20056;-52
2022/12/01 00:40:04;;;;;;;1.85;0.80;;;;;;;4.51;77.44;94814.22;4170994;28;20088;-54
2022/12/01 00:42:05;;;;;;;1.33;0.85;;;;;;;4.53;76.84;94819.28;4155455;28;20057;-53
2022/12/01 00:44:13;;;;;;;1.60;0.80;;;;;;;4.56;77.52;94816.44;4160213;28;20145;-51
2022/12/01 00:46:16;;;;;;;1.35;0.70;;;;;;;4.47;77.14;94808.44;4159819;28;20410;-53
2022/12/01 00:48:18;;;;;;;1.60;0.85;;;;;;;4.36;77.91;94802.44;4166466;28;20060;-55
2022/12/01 00:50:19;;;;;;;1.63;0.77;;;;;;;4.31;78.52;94805.38;4170763;28;20119;-54
2022/12/01 00:52:21;;;;;;;1.13;0.70;;;;;;;4.33;78.51;94805.28;4166683;28;20146;-55
2022/12/01 00:54:23;;;;;;;2.67;0.70;;;;;;;4.38;77.77;94798.75;4167962;28;20044;-52
2022/12/01 00:56:24;;;;;;;0.90;0.60;;;;;;;4.34;78.21;94802.53;4165086;28;20135;-58
2022/12/01 00:58:26;;;;;;;1.70;1.00;;;;;;;4.27;78.51;94803.97;4163692;28;20111;-52
2022/12/01 01:00:28;;;;;;;1.38;0.93;;;;;;;4.28;79.12;94808.19;4161466;28;20046;-53
2022/12/01 01:02:30;;;;;;;2.13;0.80;;;;;;;4.36;78.42;94808.44;4152723;28;20553;-52
2022/12/01 01:04:33;;;;;;;1.30;0.80;;;;;;;4.37;78.62;94807.50;4145064;28;20046;-52
2022/12/01 01:06:35;;;;;;;1.93;0.90;;;;;;;4.34;79.00;94799.94;4171194;28;20465;-52
2022/12/01 01:08:37;;;;;;;1.85;0.80;;;;;;;4.36;78.66;94808.44;4156025;28;20053;-53
2022/12/01 01:10:41;;;;;;;1.40;0.80;;;;;;;4.37;78.68;94799.72;4157919;28;20066;-52
2022/12/01 01:12:43;;;;;;;1.27;0.80;;;;;;;4.41;78.48;94801.13;4170978;28;20520;-52
2022/12/01 01:14:45;;;;;;;2.22;0.88;;;;;;;4.46;78.74;94799.00;4177583;28;20059;-54
2022/12/01 01:16:47;;;;;;;1.20;0.90;;;;;;;4.43;78.40;94791.47;4164201;28;20081;-55
2022/12/01 01:18:49;;;;;;;1.20;0.77;;;;;;;4.41;78.40;94789.91;4161413;28;20056;-52
2022/12/01 01:20:56;;;;;;;1.50;1.00;;;;;;;4.38;78.27;94785.81;4167629;28;20041;-54
2022/12/01 01:22:58;;;;;;;1.33;0.88;;;;;;;4.42;78.66;94792.41;4156816;28;20500;-50
2022/12/01 01:24:59;;;;;;;1.40;0.80;;;;;;;4.44;78.36;94780.13;4157942;28;20153;-53
2022/12/01 01:27:01;;;;;;;1.00;0.70;;;;;;;4.49;79.00;94782.38;4144316;28;20054;-52
2022/12/01 01:29:06;;;;;;;1.80;1.08;;;;;;;4.53;78.58;94782.97;4144654;28;20613;-53
2022/12/01 01:31:10;;;;;;;1.98;0.80;;;;;;;4.53;78.28;94773.41;4145076;28;20058;-53
2022/12/01 01:33:11;;;;;;;1.17;0.77;;;;;;;4.62;77.77;94772.66;4146863;28;20388;-54
2022/12/01 01:35:13;;;;;;;1.15;0.80;;;;;;;4.58;77.39;94770.44;4163101;28;20077;-51
2022/12/01 01:37:15;;;;;;;1.95;1.00;;;;;;;4.58;78.02;94765.25;4148479;28;20104;-50
2022/12/01 01:39:16;;;;;;;1.45;1.10;;;;;;;4.54;77.72;94774.22;4159917;28;20084;-52
2022/12/01 01:41:19;;;;;;;2.10;0.90;;;;;;;4.54;77.40;94774.22;4165904;28;20050;-52
2022/12/01 01:43:41;;;;;;;1.63;1.10;;;;;;;4.46;77.49;94764.47;4173073;28;20140;-54
2022/12/01 01:45:43;;;;;;;1.50;0.95;;;;;;;4.48;78.17;94767.75;4174499;28;20060;-53
2022/12/01 01:47:45;;;;;;;1.48;1.02;;;;;;;4.51;78.25;94765.72;4174294;28;20072;-52
2022/12/01 01:49:47;;;;;;;1.33;0.85;;;;;;;4.57;78.34;94758.44;4174505;28;20135;-46
2022/12/01 01:51:52;;;;;;;1.05;0.70;;;;;;;4.54;78.36;94766.44;4155159;28;20057;-51
2022/12/01 01:53:55;;;;;;;1.52;0.90;;;;;;;4.56;78.02;94755.00;4156389;28;20045;-50
2022/12/01 01:55:58;;;;;;;1.55;0.80;;;;;;;4.51;77.71;94759.72;4162362;28;20084;-52
2022/12/01 01:58:01;;;;;;;1.23;0.70;;;;;;;4.45;78.07;94761.06;4150074;28;20053;-46
2022/12/01 02:00:15;;;;;;;1.00;0.65;;;;;;;4.45;78.63;94761.06;4154362;28;20050;-50
2022/12/01 02:02:16;;;;;;;0.90;0.60;;;;;;;4.53;78.62;94754.44;4147581;28;20091;-52
2022/12/01 02:04:18;;;;;;;1.90;0.82;;;;;;;4.59;78.10;94759.94;4147607;28;20129;-49
2022/12/01 02:06:22;;;;;;;1.05;0.70;;;;;;;4.57;77.93;94750.66;4145868;28;20060;-52
2022/12/01 02:08:24;;;;;;;1.23;0.80;;;;;;;4.44;78.86;94750.78;4147046;28;20056;-52
2022/12/01 02:10:52;;;;;;;1.20;0.80;;;;;;;4.57;78.60;94750.66;4147968;28;20054;-50
2022/12/01 02:12:59;;;;;;;1.02;0.68;;;;;;;4.61;78.05;94749.47;4154681;28;20476;-54
2022/12/01 02:15:30;;;;;;;1.98;0.82;;;;;;;4.61;77.99;94754.66;4151028;28;20050;-52
2022/12/01 02:17:54;;;;;;;4.57;1.00;;;;;;;4.65;77.75;94746.50;4146910;28;20089;-49
2022/12/01 02:20:06;;;;;;;1.40;0.80;;;;;;;4.71;77.73;94755.53;4159515;28;20042;-50
2022/12/01 02:22:18;;;;;;;1.00;0.65;;;;;;;4.67;78.13;94749.78;4153717;28;20066;-52
2022/12/01 02:24:46;;;;;;;2.75;0.70;;;;;;;4.56;78.46;94743.78;4168806;28;20052;-52
2022/12/01 02:26:48;;;;;;;1.40;0.88;;;;;;;4.32;78.93;94737.00;4176330;28;20045;-52
2022/12/01 02:29:05;;;;;;;1.70;0.60;;;;;;;4.34;79.38;94740.28;4165094;28;20053;-53
2022/12/01 02:31:44;;;;;;;1.30;0.70;;;;;;;4.34;78.75;94734.28;4163297;28;20254;-52
2022/12/01 02:33:56;;;;;;;0.70;0.60;;;;;;;4.30;79.43;94731.09;4160474;28;20049;-53
2022/12/01 02:36:08;;;;;;;1.33;0.80;;;;;;;4.30;79.57;94725.91;4170756;28;20152;-52
2022/12/01 02:38:24;;;;;;;1.15;0.60;;;;;;;4.19;80.00;94733.72;4160608;28;20095;-52
2022/12/01 02:40:39;;;;;;;0.95;0.80;;;;;;;4.05;80.24;94727.03;4168000;28;20052;-51
2022/12/01 02:43:01;;;;;;;1.15;0.60;;;;;;;4.18;80.49;94740.69;4168249;28;20044;-53
2022/12/01 02:45:07;;;;;;;1.35;0.73;;;;;;;4.27;79.71;94746.91;4158588;28;20049;-51
2022/12/01 02:47:11;;;;;;;1.25;0.75;;;;;;;4.35;79.45;94739.38;4163083;28;20498;-48
2022/12/01 02:49:15;;;;;;;1.05;0.80;;;;;;;4.34;79.08;94736.88;4161725;28;20062;-54
2022/12/01 02:51:22;;;;;;;1.20;0.90;;;;;;;4.40;79.46;94739.81;4160115;28;20447;-51
2022/12/01 02:53:23;;;;;;;1.40;0.77;;;;;;;4.42;78.70;94740.53;4170009;28;20049;-51
2022/12/01 02:55:25;;;;;;;1.17;0.90;;;;;;;4.41;79.06;94735.44;4156081;28;20133;-54
2022/12/01 02:57:28;;;;;;;3.63;0.90;;;;;;;4.37;78.61;94747.84;4172415;28;20057;-51
2022/12/01 02:59:30;;;;;;;2.28;1.00;;;;;;;4.40;79.14;94749.38;4171990;28;20051;-52
2022/12/01 03:01:44;;;;;;;1.40;0.60;;;;;;;4.37;78.67;94750.44;4176745;28;20126;-49
2022/12/01 03:03:52;;;;;;;0.95;0.73;;;;;;;4.37;79.02;94741.84;4171599;28;20049;-53
2022/12/01 03:06:21;;;;;;;1.52;0.80;;;;;;;4.25;79.33;94739.25;4172173;28;20493;-51
2022/12/01 03:09:03;;;;;;;1.90;0.80;;;;;;;4.24;79.77;94747.97;4177020;28;20049;-49
2022/12/01 03:11:05;;;;;;;3.40;1.00;;;;;;;4.28;79.68;94748.53;4172043;28;20053;-56
2022/12/01 03:13:25;;;;;;;1.65;1.10;;;;;;;4.30;78.79;94754.44;4148655;28;20056;-49
2022/12/01 03:15:39;;;;;;;1.58;0.88;;;;;;;4.35;79.69;94751.50;4175631;28;20485;-48
2022/12/01 03:17:50;;;;;;;1.08;0.77;;;;;;;4.32;78.93;94742.19;4172015;28;20489;-51
2022/12/01 03:20:08;;;;;;;1.52;0.80;;;;;;;4.21;79.33;94743.00;4174113;28;20466;-50
2022/12/01 03:22:17;;;;;;;1.77;0.73;;;;;;;4.23;79.82;94733.34;4171646;28;20053;-54
2022/12/01 03:24:21;;;;;;;1.50;0.93;;;;;;;4.18;79.81;94729.50;4174314;28;20053;-50
2022/12/01 03:26:24;;;;;;;1.20;0.85;;;;;;;4.15;79.85;94730.56;4175929;28;20083;-53
2022/12/01 03:28:33;;;;;;;1.60;0.73;;;;;;;4.01;80.22;94731.59;4176954;28;20122;-54
2022/12/01 03:30:36;;;;;;;1.17;0.70;;;;;;;4.00;80.14;94732.56;4173257;28;20080;-50
2022/12/01 03:32:47;;;;;;;2.10;0.87;;;;;;;4.08;80.27;94735.38;4159773;28;20068;-52
2022/12/01 03:34:51;;;;;;;2.25;0.80;;;;;;;4.07;79.99;94733.72;4167282;28;20049;-50
2022/12/01 03:37:00;;;;;;;1.42;0.70;;;;;;;4.08;79.74;94732.78;4165830;28;20071;-54
2022/12/01 03:39:05;;;;;;;0.85;0.63;;;;;;;4.19;79.84;94733.72;4165558;28;20065;-51
2022/12/01 03:41:16;;;;;;;0.77;0.50;;;;;;;4.26;79.82;94722.75;4178444;28;20084;-51
2022/12/01 03:43:22;;;;;;;3.25;0.70;;;;;;;4.24;79.33;94721.22;4165535;28;20407;-50
2022/12/01 03:45:43;;;;;;;1.00;0.70;;;;;;;4.30;79.38;94710.34;4173770;28;20145;-50
2022/12/01 03:47:45;;;;;;;1.02;0.70;;;;;;;4.23;79.17;94725.56;4168921;28;20056;-48
2022/12/01 03:49:49;;;;;;;0.73;0.50;;;;;;;4.23;79.20;94719.56;4166414;28;20084;-50
2022/12/01 03:51:57;;;;;;;1.92;0.70;;;;;;;4.24;80.14;94723.81;4159924;28;20045;-51
2022/12/01 03:54:09;;;;;;;2.65;0.82;;;;;;;4.20;79.71;94725.00;4160487;28;20049;-51
2022/12/01 03:56:11;;;;;;;3.88;0.98;;;;;;;4.22;80.13;94723.13;4157361;28;20089;-52
2022/12/01 03:58:26;;;;;;;1.35;0.80;;;;;;;4.18;80.19;94732.09;4150625;28;20139;-54
2022/12/01 04:00:30;;;;;;;1.00;0.82;;;;;;;4.20;80.51;94725.81;4160454;28;20053;-52
2022/12/01 04:02:31;;;;;;;1.50;0.88;;;;;;;4.16;80.17;94731.38;4163082;28;20053;-56
2022/12/01 04:04:33;;;;;;;2.55;1.00;;;;;;;4.12;80.21;94720.41;4177572;28;20049;-50
2022/12/01 04:06:35;;;;;;;2.42;0.90;;;;;;;4.10;80.48;94724.88;4168862;28;20059;-48
2022/12/01 04:08:37;;;;;;;1.75;0.70;;;;;;;4.16;81.22;94741.75;4161718;28;20069;-52
2022/12/01 04:10:39;;;;;;;1.40;0.70;;;;;;;4.19;80.46;94739.72;4172306;28;20786;-53
2022/12/01 04:12:40;;;;;;;3.85;0.90;;;;;;;4.17;81.12;94728.63;4156793;28;20086;-53
2022/12/01 04:14:42;;;;;;;0.88;0.60;;;;;;;4.22;81.32;94738.69;4177100;28;20101;-48
2022/12/01 04:16:44;;;;;;;1.13;0.70;;;;;;;4.21;80.94;94737.00;4176775;28;20053;-50
2022/12/01 04:18:45;;;;;;;1.35;0.77;;;;;;;4.18;81.30;94743.28;4151944;28;20072;-52
2022/12/01 04:20:48;;;;;;;1.20;0.70;;;;;;;4.09;81.77;94739.63;4177251;28;20048;-50
2022/12/01 04:22:50;;;;;;;2.08;0.80;;;;;;;4.02;82.14;94750.56;4177048;28;20131;-52
2022/12/01 04:24:53;;;;;;;1.77;0.75;;;;;;;3.98;82.33;94749.16;4174974;28;20768;-50
2022/12/01 04:26:54;;;;;;;1.27;0.70;;;;;;;3.89;82.95;94754.13;4161018;28;20045;-48
2022/12/01 04:28:56;;;;;;;1.23;0.82;;;;;;;3.86;83.33;94758.69;4168424;28;20085;-53
2022/12/01 04:30:58;;;;;;;1.10;0.70;;;;;;;3.76;83.50;94749.97;4176919;28;20400;-54
2022/12/01 04:33:00;;;;;;;1.23;0.80;;;;;;;3.78;83.68;94755.88;4175946;28;20080;-51
2022/12/01 04:35:02;;;;;;;0.90;0.70;;;;;;;3.83;84.17;94757.19;4172829;28;20053;-51
2022/12/01 04:37:04;;;;;;;1.60;0.82;;;;;;;3.79;83.72;94757.53;4175608;28;20049;-51
2022/12/01 04:39:06;;;;;;;1.20;0.82;;;;;;;3.78;83.71;94756.69;4157829;28;20506;-49
2022/12/01 04:41:12;;;;;;;1.15;0.70;;;;;;;3.77;84.34;94759.41;4163778;28;20045;-51
2022/12/01 04:43:13;;;;;;;1.90;0.90;;;;;;;3.77;84.12;94762.00;4160449;28;20112;-51
2022/12/01 04:45:15;;;;;;;1.90;1.15;;;;;;;3.70;84.32;94761.66;4161218;28;20646;-51
2022/12/01 04:47:17;;;;;;;2.20;1.02;;;;;;;3.69;84.72;94762.56;4171250;28;20114;-51
2022/12/01 04:49:20;;;;;;;1.90;0.90;;;;;;;3.75;84.61;94756.94;4174459;28;20363;-52
2022/12/01 04:51:22;;;;;;;2.13;1.30;;;;;;;3.72;84.34;94758.91;4163269;28;20547;-52
2022/12/01 04:53:24;;;;;;;3.97;1.23;;;;;;;3.63;84.42;94763.03;4157724;28;20052;-52
2022/12/01 04:55:25;;;;;;;2.42;1.40;;;;;;;3.63;85.14;94758.66;4156859;28;20041;-52
2022/12/01 04:57:27;;;;;;;2.33;1.13;;;;;;;3.61;85.04;94764.91;4152482;28;20144;-50
2022/12/01 04:59:29;;;;;;;1.75;1.20;;;;;;;3.55;84.68;94766.22;4153740;28;20477;-51
2022/12/01 05:01:31;;;;;;;3.95;1.30;;;;;;;3.49;85.47;94766.66;4160052;28;20485;-55
2022/12/01 05:03:37;;;;;;;1.95;1.17;;;;;;;3.47;85.19;94765.94;4154947;28;20068;-55
2022/12/01 05:05:39;;;;;;;1.92;1.02;;;;;;;3.51;85.30;94774.28;4162956;28;20127;-53
2022/12/01 05:07:41;;;;;;;1.80;1.17;;;;;;;3.46;85.16;94777.22;4150711;28;20079;-52
2022/12/01 05:09:42;;;;;;;2.03;1.35;;;;;;;3.49;84.84;94766.66;4147004;28;20102;-55
2022/12/01 05:11:44;;;;;;;2.17;1.13;;;;;;;3.52;85.09;94760.41;4145246;28;20327;-54
2022/12/01 05:13:47;;;;;;;1.55;1.08;;;;;;;3.48;84.74;94765.84;4153713;28;20057;-52
2022/12/01 05:15:49;;;;;;;2.92;1.20;;;;;;;3.48;85.31;94768.44;4162649;28;20426;-54
2022/12/01 05:17:51;;;;;;;3.80;1.73;;;;;;;3.52;85.27;94774.19;4155211;28;20061;-55
2022/12/01 05:22:12;;;;;;;2.00;1.20;;;;;;;3.58;84.87;94768.56;4161672;28;20045;-54
2022/12/01 05:24:15;;;;;;;2.40;1.13;;;;;;;3.56;84.34;94773.03;4162228;28;20122;-53
2022/12/01 05:26:16;;;;;;;3.70;1.48;;;;;;;3.52;84.35;94769.00;4161949;28;20635;-52
2022/12/01 05:28:19;;;;;;;2.97;1.00;;;;;;;3.43;85.17;94775.69;4149212;28;20053;-51
2022/12/01 05:30:21;;;;;;;2.40;1.45;;;;;;;3.49;85.20;94774.44;4151188;28;20037;-53
2022/12/01 05:32:29;;;;;;;2.92;1.60;;;;;;;3.57;85.05;94772.09;4153717;28;20058;-54
2022/12/01 05:34:30;;;;;;;2.83;1.63;;;;;;;3.40;85.29;94768.16;4167550;28;20045;-51
2022/12/01 05:36:32;;;;;;;5.40;1.83;;;;;;;3.27;84.87;94772.63;4170254;28;20064;-50
2022/12/01 05:38:34;;;;;;;2.35;1.77;;;;;;;3.31;85.60;94770.59;4163528;28;20076;-50
2022/12/01 05:40:36;;;;;;;2.85;1.73;;;;;;;3.23;85.69;94776.38;4161499;28;20051;-55
2022/12/01 05:42:38;;;;;;;5.80;1.75;;;;;;;3.22;85.30;94780.69;4165826;28;20826;-52
2022/12/01 05:44:39;;;;;;;3.95;1.73;;;;;;;3.05;85.69;94778.50;4143305;28;20097;-51
2022/12/01 05:46:41;;;;;;;2.83;1.73;;;;;;;3.12;85.74;94779.72;4155368;28;20049;-50
2022/12/01 05:48:42;;;;;;;2.97;1.48;;;;;;;3.22;86.00;94778.09;4162317;28;20108;-54
2022/12/01 05:50:44;;;;;;;3.53;2.17;;;;;;;3.21;85.25;94781.66;4165761;28;20057;-54
2022/12/01 05:52:46;;;;;;;2.97;1.90;;;;;;;3.24;85.18;94786.59;4160947;28;20073;-54
2022/12/01 05:54:48;;;;;;;4.22;1.77;;;;;;;3.24;85.27;94778.00;4164711;28;20061;-50
2022/12/01 05:56:49;;;;;;;4.30;2.30;;;;;;;3.18;85.29;94781.03;4176248;28;20107;-52
2022/12/01 05:58:51;;;;;;;6.97;2.75;;;;;;;3.18;85.34;94778.44;4175432;28;20135;-53
2022/12/01 06:00:53;;;;;;;3.88;2.20;;;;;;;3.18;85.21;94786.22;4175585;28;20057;-53
2022/12/01 06:02:54;;;;;;;4.55;2.92;;;;;;;3.08;85.61;94784.31;4175841;28;20075;-53
2022/12/01 06:04:56;;;;;;;6.93;2.90;;;;;;;3.11;85.46;94777.25;4175855;28;20110;-53
2022/12/01 06:06:58;;;;;;;4.97;2.97;;;;;;;3.17;85.60;94785.38;4176288;28;20067;-55
2022/12/01 06:08:59;;;;;;;4.30;3.28;;;;;;;3.18;84.94;94787.03;4175402;28;20049;-53
2022/12/01 06:11:01;;;;;;;5.05;3.35;;;;;;;3.19;85.30;94786.09;4175525;28;20057;-54
2022/12/01 06:13:03;;;;;;;4.65;3.00;;;;;;;3.20;85.00;94787.75;4175034;28;20075;-54
2022/12/01 06:15:06;;;;;;;6.00;3.03;;;;;;;3.17;84.78;94785.38;4175718;28;20057;-53
2022/12/01 06:17:08;;;;;;;7.28;3.35;;;;;;;3.10;85.05;94780.75;4162244;28;20118;-55
2022/12/01 06:19:34;;;;;;;5.10;3.40;;;;;;;3.14;85.42;94780.44;4176855;28;20045;-54
2022/12/01 06:21:36;;;;;;;5.28;3.10;;;;;;;3.09;84.89;94792.88;4175906;28;20045;-53
2022/12/01 06:23:38;;;;;;;7.50;3.88;;;;;;;3.18;84.69;94784.44;4179667;28;20049;-54
2022/12/01 06:25:39;;;;;;;5.05;3.20;;;;;;;3.18;84.45;94779.25;4179844;28;20068;-54
2022/12/01 06:27:41;;;;;;;5.07;3.40;;;;;;;3.19;84.25;94780.94;4180446;28;20215;-56
2022/12/01 06:29:43;;;;;;;5.57;2.90;;;;;;;3.22;83.91;94774.69;4164757;28;20053;-53
2022/12/01 06:31:44;;;;;;;5.05;2.88;;;;;;;3.15;84.31;94776.09;4178869;28;20529;-54
2022/12/01 06:33:46;;;;;;;4.10;2.50;;;;;;;3.16;84.00;94772.56;4178883;28;20053;-54
2022/12/01 06:35:48;;;;;;;4.05;2.50;;;;;;;3.07;84.03;94781.81;4164993;28;20172;-54
2022/12/01 06:37:53;;;;;;;4.32;2.35;;;;;;;3.11;84.23;94775.47;4162114;28;20534;-55
2022/12/01 06:39:54;;;;;;;6.05;2.30;;;;;;;3.10;84.02;94771.25;4171724;28;20139;-53
2022/12/01 06:41:56;;;;;;;3.90;2.72;;;;;;;3.12;84.34;94768.53;4180417;28;20391;-54
2022/12/01 06:43:57;;;;;;;3.42;2.28;;;;;;;3.14;84.17;94775.28;4177501;28;20198;-52
2022/12/01 06:46:02;;;;;;;4.47;2.42;;;;;;;3.11;84.43;94772.88;4163053;28;20401;-55
2022/12/01 06:48:04;;;;;;;4.10;2.70;;;;;;;3.18;83.71;94778.44;4163056;28;20049;-52
2022/12/01 06:50:08;;;;;;;4.40;2.50;;;;;;;3.28;83.85;94777.66;4156509;28;20057;-54
2022/12/01 06:52:10;;;;;;;4.20;2.20;;;;;;;3.17;83.56;94777.63;4162551;28;20060;-52
2022/12/01 06:54:13;;;;;;;3.35;2.53;;;;;;;3.26;84.00;94782.13;4162963;28;20104;-56
2022/12/01 06:56:16;;;;;;;4.20;2.30;;;;;;;3.30;83.63;94781.91;4159602;28;20075;-54
2022/12/01 06:58:18;;;;;;;3.88;2.35;;;;;;;3.37;83.01;94783.09;4167492;28;20116;-53
2022/12/01 07:00:21;;;;;;;4.15;2.40;;;;;;;3.40;83.13;94788.03;4160390;28;20550;-54
2022/12/01 07:02:23;;;;;;;4.53;2.22;;;;;;;3.28;82.71;94776.84;4167887;28;20466;-49
2022/12/01 07:04:25;;;;;;;3.70;2.13;;;;;;;3.27;82.28;94785.56;4160595;28;20088;-53
2022/12/01 07:06:29;;;;;;;4.47;1.83;;;;;;;3.33;82.74;94779.91;4161507;28;20052;-53
2022/12/01 07:08:31;;;;;;;4.28;1.88;;;;;;;3.39;82.26;94786.41;4162041;28;20073;-54
2022/12/01 07:10:33;;;;;;;2.67;1.70;;;;;;;3.43;81.80;94785.25;4152499;28;20058;-53
2022/12/01 07:12:37;;;;;;;3.75;1.63;;;;;;;3.49;80.98;94788.19;4156111;28;20072;-53
2022/12/01 07:14:41;;;;;;;4.85;1.92;;;;;;;3.53;80.71;94781.03;4168027;28;20061;-54
2022/12/01 07:16:42;;;;;;;3.08;1.80;;;;;;;3.54;80.77;94785.25;4168034;28;20041;-51
2022/12/01 07:18:44;;;;;;;4.43;3.00;;;;;;;3.57;80.37;94781.63;4162038;28;20223;-55
2022/12/01 07:20:46;;;;;;;2.97;1.80;;;;;;;3.65;80.58;94780.09;4168198;28;20055;-57
2022/12/01 07:22:47;;;;;;;3.10;2.03;;;;;;;3.62;80.54;94788.13;4158287;28;20528;-52
2022/12/01 07:24:49;;;;;;;3.35;2.30;;;;;;;3.76;80.22;94783.66;4158700;28;20071;-55
2022/12/01 07:26:51;;;;;;;3.47;1.95;;;;;;;3.62;79.68;94779.53;4158675;28;20532;-54
2022/12/01 07:28:52;;;;;;;3.88;1.63;;;;;;;3.65;79.58;94780.09;4169149;28;20068;-53
2022/12/01 07:31:04;;;;;;;3.08;1.90;;;;;;;3.69;79.04;94778.94;4162668;28;20096;-54
2022/12/01 07:33:06;;;;;;;2.53;1.70;;;;;;;3.77;79.56;94780.13;4166489;28;20589;-50
2022/12/01 07:35:09;;;;;;;3.67;1.50;;;;;;;3.66;79.17;94784.34;4165488;28;20127;-54
2022/12/01 07:37:10;;;;;;;3.05;1.75;;;;;;;3.71;79.52;94780.59;4161619;28;20144;-53
2022/12/01 07:39:12;;;;;;;3.90;1.73;;;;;;;3.59;79.42;94782.31;4151783;28;20045;-55
2022/12/01 07:41:17;;;;;;;3.75;1.90;;;;;;;3.48;79.54;94783.97;4171540;28;20053;-48
2022/12/01 07:43:19;;;;;;;3.45;1.83;;;;;;;3.48;79.71;94786.56;4160811;28;20045;-53
2022/12/01 07:45:21;;;;;;;3.88;1.60;;;;;;;3.38;79.84;94780.41;4161201;28;20049;-53
2022/12/01 07:47:23;;;;;;;3.05;1.30;;;;;;;3.41;80.23;94780.16;4161270;28;20081;-55
2022/12/01 07:49:24;;;;;;;5.70;1.73;;;;;;;3.41;79.88;94775.00;4161519;28;20171;-52
2022/12/01 07:51:26;;;;;;;2.95;1.42;;;;;;;3.45;79.86;94781.59;4165348;28;20049;-51
2022/12/01 07:53:28;;;;;;;5.13;2.70;;;;;;;3.42;80.30;94778.41;4170819;28;20053;-54
2022/12/01 07:55:30;;;;;;;3.45;2.33;;;;;;;3.39;80.63;94779.44;4171568;28;20477;-52
2022/12/01 07:57:31;;;;;;;5.72;2.47;;;;;;;3.48;80.23;94783.97;4162799;28;20073;-50
2022/12/01 07:59:33;;;;;;;4.53;2.15;;;;;;;3.48;79.96;94783.97;4148509;28;20060;-53
2022/12/01 08:01:35;;;;;;;4.80;2.35;;;;;;;3.44;80.51;94784.28;4160287;28;20662;-56
2022/12/01 08:03:43;;;;;;;5.82;2.30;;;;;;;3.55;80.12;94781.75;4161402;28;20355;-55
2022/12/01 08:05:47;;;;;;;9.60;4.90;;;;;;;3.51;80.32;94785.50;4172605;28;20061;-54
2022/12/01 08:07:49;;;;;;;4.15;2.03;;;;;;;3.47;80.92;94787.47;4143337;28;20072;-52
2022/12/01 08:09:51;;;;;;;2.83;1.70;;;;;;;3.44;80.73;94779.97;4143281;28;20061;-55
2022/12/01 08:11:53;;;;;;;4.43;1.60;;;;;;;3.41;81.31;94779.34;4157081;28;20064;-55
2022/12/01 08:13:54;;;;;;;4.22;2.00;;;;;;;3.45;81.48;94776.41;4145592;28;20690;-53
2022/12/01 08:15:56;;;;;;;3.40;1.80;;;;;;;3.33;81.15;94777.31;4144214;28;20053;-53
2022/12/01 08:17:59;;;;;;;5.00;2.10;;;;;;;3.35;82.41;94784.97;4144794;28;20069;-53
2022/12/01 08:20:01;;;;;;;3.30;1.60;;;;;;;3.31;81.95;94781.78;4157888;28;20091;-55
2022/12/01 08:22:03;;;;;;;4.35;2.10;;;;;;;3.31;82.17;94789.53;4161149;28;20137;-55
2022/12/01 08:24:05;;;;;;;3.42;1.73;;;;;;;3.38;81.53;94784.75;4161193;28;20136;-53
2022/12/01 08:26:11;;;;;;;2.80;1.55;;;;;;;3.40;81.82;94782.84;4151023;28;20061;-55
2022/12/01 08:28:13;;;;;;;2.80;1.70;;;;;;;3.41;81.51;94782.75;4143323;28;20173;-55
2022/12/01 08:30:14;;;;;;;3.50;1.60;;;;;;;3.33;81.60;94781.66;4150120;28;20459;-53
2022/12/01 08:32:17;;;;;;;3.65;1.65;;;;;;;3.31;82.47;94791.31;4158206;28;20390;-56
2022/12/01 08:34:18;;;;;;;2.22;1.42;;;;;;;3.24;81.90;94788.34;4166714;28;20049;-55
2022/12/01 08:36:21;;;;;;;4.68;1.60;;;;;;;3.28;82.22;94788.00;4162029;28;20099;-55
2022/12/01 08:38:22;;;;;;;3.60;1.80;;;;;;;3.22;81.90;94791.03;4153777;28;20042;-50
2022/12/01 08:40:24;;;;;;;4.72;2.22;;;;;;;3.23;82.58;94792.72;4151065;28;20054;-49
2022/12/01 08:42:26;;;;;;;3.53;1.92;;;;;;;3.24;82.21;94788.34;4146093;28;20352;-53
2022/12/01 08:44:28;;;;;;;2.65;1.63;;;;;;;3.25;82.89;94784.84;4157966;28;20052;-52
2022/12/01 08:46:34;;;;;;;3.25;2.03;;;;;;;3.32;82.38;94780.03;4150014;28;20056;-54
2022/12/01 08:48:36;;;;;;;3.28;2.08;;;;;;;3.38;81.95;94780.41;4145101;28;20053;-54
2022/12/01 08:50:38;;;;;;;4.78;2.10;;;;;;;3.25;82.25;94774.50;4153257;28;20079;-51
2022/12/01 08:52:39;;;;;;;4.97;2.40;;;;;;;3.24;82.37;94783.19;4152523;28;20081;-54
2022/12/01 08:54:41;;;;;;;5.57;1.70;;;;;;;3.23;81.96;94773.78;4156219;28;20154;-53
2022/12/01 08:56:44;;;;;;;6.32;2.30;;;;;;;3.21;82.33;94773.88;4157163;28;20083;-52
2022/12/01 08:58:46;;;;;;;4.45;1.73;;;;;;;3.24;82.48;94776.22;4149222;28;20107;-53
2022/12/01 09:00:47;;;;;;;3.28;1.80;;;;;;;3.30;81.98;94782.72;4159950;28;20215;-48
2022/12/01 09:02:49;;;;;;;3.70;1.83;;;;;;;3.37;82.28;94781.31;4160461;28;20063;-53
2022/12/01 09:04:51;;;;;;;3.83;1.75;;;;;;;3.39;81.80;94774.28;4144700;28;20050;-53
2022/12/01 09:06:54;;;;;;;4.85;2.15;;;;;;;3.35;81.64;94772.84;4144239;28;20129;-55
2022/12/01 09:08:58;;;;;;;5.28;2.20;;;;;;;3.41;81.48;94767.22;4154419;28;20093;-51
2022/12/01 09:11:05;;;;;;;3.40;1.80;;;;;;;3.43;81.30;94774.88;4147051;28;20062;-49
2022/12/01 09:13:07;;;;;;;2.63;1.70;;;;;;;3.46;81.36;94767.72;4146665;28;20069;-53
2022/12/01 09:15:09;;;;;;;3.75;2.05;;;;;;;3.56;80.55;94769.63;4152414;28;20058;-51
2022/12/01 09:17:10;;;;;;;3.47;1.90;;;;;;;3.40;80.84;94773.34;4155638;28;20461;-52
2022/12/01 09:19:13;;;;;;;4.30;2.17;;;;;;;3.52;81.04;94760.41;4148023;28;20054;-58
2022/12/01 09:21:25;;;;;;;3.03;1.80;;;;;;;3.55;80.41;94765.34;4152775;28;20061;-54
2022/12/01 09:23:27;;;;;;;2.63;1.73;;;;;;;3.57;80.21;94772.09;4144542;28;20065;-50
2022/12/01 09:25:29;;;;;;;6.78;2.35;;;;;;;3.58;80.24;94760.78;4157873;28;20138;-51
2022/12/01 09:27:31;;;;;;;6.88;3.30;;;;;;;3.61;80.10;94765.72;4143940;28;20158;-50
2022/12/01 09:29:33;;;;;;;4.40;2.20;;;;;;;3.63;80.04;94761.25;4151744;28;20057;-56
2022/12/01 09:31:35;;;;;;;7.35;2.55;;;;;;;3.67;79.58;94761.84;4159730;28;20061;-52
2022/12/01 09:33:37;;;;;;;3.53;2.00;;;;;;;3.75;79.73;94753.53;4145948;28;20078;-51
2022/12/01 09:35:39;;;;;;;3.22;2.00;;;;;;;3.73;79.07;94756.22;4148695;28;20046;-54
2022/12/01 09:37:41;;;;;;;4.32;2.40;;;;;;;3.75;78.76;94759.53;4157743;28;20115;-51
2022/12/01 09:39:42;;;;;;;3.22;2.17;;;;;;;3.72;78.54;94745.97;4167994;28;20126;-52
2022/12/01 09:41:52;;;;;;;4.28;2.30;;;;;;;3.83;79.02;94748.56;4176648;28;20048;-53
2022/12/01 09:44:13;;;;;;;3.20;2.20;;;;;;;3.85;78.97;94749.25;4173941;28;20061;-53
2022/12/01 09:46:21;;;;;;;4.13;2.33;;;;;;;3.80;78.80;94748.81;4176389;28;20053;-50
2022/12/01 09:48:41;;;;;;;7.20;2.40;;;;;;;3.76;78.47;94735.25;4174921;28;20049;-51
2022/12/01 09:50:43;;;;;;;4.00;2.13;;;;;;;3.83;78.69;94743.38;4159109;28;20180;-54
2022/12/01 09:52:52;;;;;;;5.22;1.77;;;;;;;3.83;78.73;94749.41;4173647;28;20053;-53
2022/12/01 09:54:55;;;;;;;2.80;1.88;;;;;;;3.83;78.42;94744.22;4170038;28;20064;-51
2022/12/01 09:56:58;;;;;;;3.58;1.70;;;;;;;3.89;78.44;94743.75;4170957;28;20052;-54